sensor_id;sensor_type;location;lat;lon;timestamp;pressure;altitude;pressure_sealevel;temperature;humidity
11682;BME280;5897;42.640;23.310;2023-05-31T00:02:01;93976.66;;;17.19;100.00
11682;BME280;5897;42.640;23.310;2023-05-31T00:04:27;93979.69;;;17.21;100.00
11682;BME280;5897;42.640;23.310;2023-05-31T00:06:55;93975.91;;;17.18;100.00
11682;BME280;5897;42.640;23.310;2023-05-31T00:09:22;93980.88;;;17.20;100.00
11682;BME280;5897;42.640;23.310;2023-05-31T00:11:49;93977.09;;;17.17;100.00
11682;BME280;5897;42.640;23.310;2023-05-31T00:14:16;93984.75;;;17.13;100.00
11682;BME280;5897;42.640;23.310;2023-05-31T00:16:42;93978.53;;;17.13;100.00
11682;BME280;5897;42.640;23.310;2023-05-31T00:19:09;93972.47;;;17.09;100.00
11682;BME280;5897;42.640;23.310;2023-05-31T00:21:36;93974.66;;;17.05;100.00
11682;BME280;5897;42.640;23.310;2023-05-31T00:24:05;93978.25;;;17.11;100.00
11682;BME280;5897;42.640;23.310;2023-05-31T00:26:31;93974.56;;;17.14;100.00
11682;BME280;5897;42.640;23.310;2023-05-31T00:28:58;93973.81;;;17.13;100.00
11682;BME280;5897;42.640;23.310;2023-05-31T00:31:25;93978.25;;;17.11;100.00
11682;BME280;5897;42.640;23.310;2023-05-31T00:33:52;93976.72;;;17.10;100.00
11682;BME280;5897;42.640;23.310;2023-05-31T00:36:19;93971.75;;;17.08;100.00
11682;BME280;5897;42.640;23.310;2023-05-31T00:38:45;93974.94;;;17.07;100.00
11682;BME280;5897;42.640;23.310;2023-05-31T00:41:14;93975.56;;;17.02;100.00
11682;BME280;5897;42.640;23.310;2023-05-31T00:43:41;93972.97;;;17.07;100.00
11682;BME280;5897;42.640;23.310;2023-05-31T00:46:11;93979.47;;;17.10;100.00
11682;BME280;5897;42.640;23.310;2023-05-31T00:48:41;93980.38;;;17.07;100.00
11682;BME280;5897;42.640;23.310;2023-05-31T00:51:08;93988.56;;;17.07;100.00
11682;BME280;5897;42.640;23.310;2023-05-31T00:53:35;93991.13;;;17.10;100.00
11682;BME280;5897;42.640;23.310;2023-05-31T00:56:01;93988.41;;;17.10;100.00
11682;BME280;5897;42.640;23.310;2023-05-31T00:58:31;93988.78;;;17.18;100.00
11682;BME280;5897;42.640;23.310;2023-05-31T01:01:00;93994.63;;;17.11;100.00
11682;BME280;5897;42.640;23.310;2023-05-31T01:03:27;93994.56;;;16.96;100.00
11682;BME280;5897;42.640;23.310;2023-05-31T01:05:54;93993.25;;;16.92;100.00
11682;BME280;5897;42.640;23.310;2023-05-31T01:08:21;93987.13;;;16.97;100.00
11682;BME280;5897;42.640;23.310;2023-05-31T01:10:49;93994.91;;;16.89;100.00
11682;BME280;5897;42.640;23.310;2023-05-31T01:13:23;94001.28;;;16.86;100.00
11682;BME280;5897;42.640;23.310;2023-05-31T01:15:58;93998.31;;;16.75;100.00
11682;BME280;5897;42.640;23.310;2023-05-31T01:18:31;93996.06;;;16.74;100.00
11682;BME280;5897;42.640;23.310;2023-05-31T01:21:03;93998.50;;;16.72;100.00
11682;BME280;5897;42.640;23.310;2023-05-31T01:23:37;93992.59;;;16.73;100.00
11682;BME280;5897;42.640;23.310;2023-05-31T01:26:36;93992.75;;;16.70;100.00
11682;BME280;5897;42.640;23.310;2023-05-31T01:29:06;93989.72;;;16.68;100.00
11682;BME280;5897;42.640;23.310;2023-05-31T01:31:35;93998.41;;;16.66;100.00
11682;BME280;5897;42.640;23.310;2023-05-31T01:34:03;93994.72;;;16.69;100.00
11682;BME280;5897;42.640;23.310;2023-05-31T01:36:30;93999.19;;;16.81;100.00
11682;BME280;5897;42.640;23.310;2023-05-31T01:38:57;93986.97;;;16.77;100.00
11682;BME280;5897;42.640;23.310;2023-05-31T01:41:26;93989.88;;;16.73;100.00
11682;BME280;5897;42.640;23.310;2023-05-31T01:43:56;93981.25;;;16.66;100.00
11682;BME280;5897;42.640;23.310;2023-05-31T01:46:24;93990.66;;;16.65;100.00
11682;BME280;5897;42.640;23.310;2023-05-31T01:48:52;93992.63;;;16.64;100.00
11682;BME280;5897;42.640;23.310;2023-05-31T01:51:20;93989.63;;;16.62;100.00
11682;BME280;5897;42.640;23.310;2023-05-31T01:53:47;93987.63;;;16.63;100.00
11682;BME280;5897;42.640;23.310;2023-05-31T01:56:14;93992.16;;;16.66;100.00
11682;BME280;5897;42.640;23.310;2023-05-31T01:58:42;93993.81;;;16.72;100.00
11682;BME280;5897;42.640;23.310;2023-05-31T02:01:14;93986.97;;;16.77;100.00
11682;BME280;5897;42.640;23.310;2023-05-31T02:03:42;93986.50;;;16.78;100.00
11682;BME280;5897;42.640;23.310;2023-05-31T02:06:09;93995.41;;;16.79;100.00
11682;BME280;5897;42.640;23.310;2023-05-31T02:08:38;93993.28;;;16.83;100.00
11682;BME280;5897;42.640;23.310;2023-05-31T02:11:05;93997.94;;;16.91;100.00
11682;BME280;5897;42.640;23.310;2023-05-31T02:13:33;93995.03;;;16.95;100.00
11682;BME280;5897;42.640;23.310;2023-05-31T02:16:00;94006.88;;;16.92;100.00
11682;BME280;5897;42.640;23.310;2023-05-31T02:18:28;94005.44;;;16.82;100.00
11682;BME280;5897;42.640;23.310;2023-05-31T02:20:55;94006.34;;;16.79;100.00
11682;BME280;5897;42.640;23.310;2023-05-31T02:23:22;93992.16;;;16.66;100.00
11682;BME280;5897;42.640;23.310;2023-05-31T02:25:49;94001.34;;;16.45;100.00
11682;BME280;5897;42.640;23.310;2023-05-31T02:28:17;93999.25;;;16.40;100.00
11682;BME280;5897;42.640;23.310;2023-05-31T02:30:53;93998.06;;;16.41;100.00
11682;BME280;5897;42.640;23.310;2023-05-31T02:33:20;94001.97;;;16.40;100.00
11682;BME280;5897;42.640;23.310;2023-05-31T02:35:49;94003.78;;;16.34;100.00
11682;BME280;5897;42.640;23.310;2023-05-31T02:38:16;93999.28;;;16.31;100.00
11682;BME280;5897;42.640;23.310;2023-05-31T02:40:43;93992.59;;;16.32;100.00
11682;BME280;5897;42.640;23.310;2023-05-31T02:43:10;94006.06;;;16.35;100.00
11682;BME280;5897;42.640;23.310;2023-05-31T02:45:37;93996.06;;;16.41;100.00
11682;BME280;5897;42.640;23.310;2023-05-31T02:48:04;93996.50;;;16.49;100.00
11682;BME280;5897;42.640;23.310;2023-05-31T02:50:32;93987.25;;;16.55;100.00
11682;BME280;5897;42.640;23.310;2023-05-31T02:53:00;93997.34;;;16.64;100.00
11682;BME280;5897;42.640;23.310;2023-05-31T02:55:29;93997.00;;;16.71;100.00
11682;BME280;5897;42.640;23.310;2023-05-31T02:57:56;93995.78;;;16.72;100.00
11682;BME280;5897;42.640;23.310;2023-05-31T03:00:23;93998.78;;;16.74;100.00
11682;BME280;5897;42.640;23.310;2023-05-31T03:02:51;93998.47;;;16.81;100.00
11682;BME280;5897;42.640;23.310;2023-05-31T03:05:18;93999.78;;;16.85;100.00
11682;BME280;5897;42.640;23.310;2023-05-31T03:07:45;94003.56;;;16.88;100.00
11682;BME280;5897;42.640;23.310;2023-05-31T03:10:13;94007.81;;;16.89;100.00
11682;BME280;5897;42.640;23.310;2023-05-31T03:12:39;93999.91;;;16.91;100.00
11682;BME280;5897;42.640;23.310;2023-05-31T03:15:07;94006.56;;;16.90;100.00
11682;BME280;5897;42.640;23.310;2023-05-31T03:17:34;94008.25;;;16.87;100.00
11682;BME280;5897;42.640;23.310;2023-05-31T03:20:04;94006.56;;;16.90;100.00
11682;BME280;5897;42.640;23.310;2023-05-31T03:22:32;94013.38;;;16.94;100.00
11682;BME280;5897;42.640;23.310;2023-05-31T03:24:59;94004.72;;;16.96;100.00
11682;BME280;5897;42.640;23.310;2023-05-31T03:27:27;94003.50;;;16.97;100.00
11682;BME280;5897;42.640;23.310;2023-05-31T03:29:54;94010.47;;;16.98;100.00
11682;BME280;5897;42.640;23.310;2023-05-31T03:32:21;94002.34;;;16.89;100.00
11682;BME280;5897;42.640;23.310;2023-05-31T03:34:47;94017.72;;;17.01;100.00
11682;BME280;5897;42.640;23.310;2023-05-31T03:37:14;94018.97;;;17.00;100.00
11682;BME280;5897;42.640;23.310;2023-05-31T03:39:41;94015.28;;;17.03;100.00
11682;BME280;5897;42.640;23.310;2023-05-31T03:42:08;94022.72;;;17.02;100.00
11682;BME280;5897;42.640;23.310;2023-05-31T03:44:36;94023.47;;;17.03;100.00
11682;BME280;5897;42.640;23.310;2023-05-31T03:47:03;94018.81;;;16.94;100.00
11682;BME280;5897;42.640;23.310;2023-05-31T03:49:30;94029.72;;;16.94;100.00
11682;BME280;5897;42.640;23.310;2023-05-31T03:52:00;94035.50;;;16.96;100.00
11682;BME280;5897;42.640;23.310;2023-05-31T03:54:29;94029.59;;;16.98;100.00
11682;BME280;5897;42.640;23.310;2023-05-31T03:56:56;94033.81;;;16.99;100.00
11682;BME280;5897;42.640;23.310;2023-05-31T03:59:22;94035.59;;;17.02;100.00
11682;BME280;5897;42.640;23.310;2023-05-31T04:01:51;94030.91;;;17.02;100.00
11682;BME280;5897;42.640;23.310;2023-05-31T04:04:18;94038.16;;;17.05;100.00
11682;BME280;5897;42.640;23.310;2023-05-31T04:06:45;94037.97;;;17.09;100.00
11682;BME280;5897;42.640;23.310;2023-05-31T04:09:11;94040.72;;;17.09;100.00
11682;BME280;5897;42.640;23.310;2023-05-31T04:11:39;94041.75;;;17.11;100.00
11682;BME280;5897;42.640;23.310;2023-05-31T04:14:06;94038.88;;;17.15;100.00
11682;BME280;5897;42.640;23.310;2023-05-31T04:16:33;94037.34;;;17.14;100.00
11682;BME280;5897;42.640;23.310;2023-05-31T04:19:01;94031.88;;;17.14;100.00
11682;BME280;5897;42.640;23.310;2023-05-31T04:21:28;94046.31;;;17.14;100.00
11682;BME280;5897;42.640;23.310;2023-05-31T04:23:55;94030.53;;;17.18;100.00
11682;BME280;5897;42.640;23.310;2023-05-31T04:26:21;94040.94;;;17.20;100.00
11682;BME280;5897;42.640;23.310;2023-05-31T04:28:48;94038.81;;;17.24;100.00
11682;BME280;5897;42.640;23.310;2023-05-31T04:31:17;94036.34;;;17.26;100.00
11682;BME280;5897;42.640;23.310;2023-05-31T04:33:44;94040.72;;;17.32;100.00
11682;BME280;5897;42.640;23.310;2023-05-31T04:36:12;94051.47;;;17.36;100.00
11682;BME280;5897;42.640;23.310;2023-05-31T04:38:39;94044.94;;;17.42;100.00
11682;BME280;5897;42.640;23.310;2023-05-31T04:41:05;94052.41;;;17.33;100.00
11682;BME280;5897;42.640;23.310;2023-05-31T04:43:32;94053.53;;;17.50;100.00
11682;BME280;5897;42.640;23.310;2023-05-31T04:45:59;94059.72;;;17.50;100.00
11682;BME280;5897;42.640;23.310;2023-05-31T04:48:26;94060.50;;;17.51;100.00
11682;BME280;5897;42.640;23.310;2023-05-31T04:50:53;94053.16;;;17.57;100.00
11682;BME280;5897;42.640;23.310;2023-05-31T04:53:23;94049.19;;;17.58;100.00
11682;BME280;5897;42.640;23.310;2023-05-31T04:55:50;94048.19;;;17.70;100.00
11682;BME280;5897;42.640;23.310;2023-05-31T04:58:17;94058.19;;;17.73;100.00
11682;BME280;5897;42.640;23.310;2023-05-31T05:00:45;94065.03;;;17.68;100.00
11682;BME280;5897;42.640;23.310;2023-05-31T05:03:12;94067.13;;;17.73;100.00
11682;BME280;5897;42.640;23.310;2023-05-31T05:05:39;94068.66;;;17.74;100.00
11682;BME280;5897;42.640;23.310;2023-05-31T05:08:06;94070.38;;;17.86;100.00
11682;BME280;5897;42.640;23.310;2023-05-31T05:10:35;94071.78;;;17.96;100.00
11682;BME280;5897;42.640;23.310;2023-05-31T05:13:01;94073.59;;;17.99;100.00
11682;BME280;5897;42.640;23.310;2023-05-31T05:15:28;94081.88;;;18.05;100.00
11682;BME280;5897;42.640;23.310;2023-05-31T05:17:55;94080.97;;;18.08;100.00
11682;BME280;5897;42.640;23.310;2023-05-31T05:20:22;94089.06;;;18.17;100.00
11682;BME280;5897;42.640;23.310;2023-05-31T05:22:52;94096.16;;;18.23;100.00
11682;BME280;5897;42.640;23.310;2023-05-31T05:25:18;94094.91;;;18.24;100.00
11682;BME280;5897;42.640;23.310;2023-05-31T05:27:48;94096.09;;;18.32;100.00
11682;BME280;5897;42.640;23.310;2023-05-31T05:30:15;94103.78;;;18.19;100.00
11682;BME280;5897;42.640;23.310;2023-05-31T05:32:42;94106.34;;;18.23;100.00
11682;BME280;5897;42.640;23.310;2023-05-31T05:35:09;94100.50;;;18.30;100.00
11682;BME280;5897;42.640;23.310;2023-05-31T05:37:36;94107.66;;;18.27;100.00
11682;BME280;5897;42.640;23.310;2023-05-31T05:40:03;94104.81;;;18.22;100.00
11682;BME280;5897;42.640;23.310;2023-05-31T05:42:32;94099.66;;;18.24;100.00
11682;BME280;5897;42.640;23.310;2023-05-31T05:45:04;94109.09;;;18.23;100.00
11682;BME280;5897;42.640;23.310;2023-05-31T05:47:32;94111.50;;;18.21;100.00
11682;BME280;5897;42.640;23.310;2023-05-31T05:49:59;94108.50;;;18.19;100.00
11682;BME280;5897;42.640;23.310;2023-05-31T05:52:26;94111.75;;;18.32;100.00
11682;BME280;5897;42.640;23.310;2023-05-31T05:54:53;94110.50;;;18.33;100.00
11682;BME280;5897;42.640;23.310;2023-05-31T05:57:20;94102.69;;;18.40;100.00
11682;BME280;5897;42.640;23.310;2023-05-31T05:59:47;94106.66;;;18.39;100.00
11682;BME280;5897;42.640;23.310;2023-05-31T06:02:16;94105.53;;;18.46;100.00
11682;BME280;5897;42.640;23.310;2023-05-31T06:04:42;94105.34;;;18.49;100.00
11682;BME280;5897;42.640;23.310;2023-05-31T06:07:09;94098.81;;;18.61;100.00
11682;BME280;5897;42.640;23.310;2023-05-31T06:09:36;94109.19;;;18.72;100.00
11682;BME280;5897;42.640;23.310;2023-05-31T06:12:03;94107.94;;;18.73;100.00
11682;BME280;5897;42.640;23.310;2023-05-31T06:14:32;94086.69;;;18.82;100.00
11682;BME280;5897;42.640;23.310;2023-05-31T06:16:58;94109.34;;;18.97;100.00
11682;BME280;5897;42.640;23.310;2023-05-31T06:19:27;94107.81;;;19.11;100.00
11682;BME280;5897;42.640;23.310;2023-05-31T06:21:54;94110.72;;;19.22;98.64
11682;BME280;5897;42.640;23.310;2023-05-31T06:24:23;94108.16;;;19.33;97.50
11682;BME280;5897;42.640;23.310;2023-05-31T06:26:50;94111.44;;;19.37;94.73
11682;BME280;5897;42.640;23.310;2023-05-31T06:29:16;94106.44;;;19.35;94.55
11682;BME280;5897;42.640;23.310;2023-05-31T06:31:43;94106.44;;;19.55;94.40
11682;BME280;5897;42.640;23.310;2023-05-31T06:34:10;94113.03;;;19.63;93.46
11682;BME280;5897;42.640;23.310;2023-05-31T06:36:39;94110.81;;;19.67;93.26
11682;BME280;5897;42.640;23.310;2023-05-31T06:39:05;94114.94;;;19.77;92.91
11682;BME280;5897;42.640;23.310;2023-05-31T06:41:32;94118.97;;;19.82;91.80
11682;BME280;5897;42.640;23.310;2023-05-31T06:44:00;94115.56;;;19.87;91.81
11682;BME280;5897;42.640;23.310;2023-05-31T06:46:27;94111.19;;;19.95;92.25
11682;BME280;5897;42.640;23.310;2023-05-31T06:48:54;94101.09;;;19.86;91.92
11682;BME280;5897;42.640;23.310;2023-05-31T06:51:21;94117.34;;;20.10;91.29
11682;BME280;5897;42.640;23.310;2023-05-31T06:53:50;94108.75;;;20.22;90.82
11682;BME280;5897;42.640;23.310;2023-05-31T06:56:17;94116.03;;;20.25;89.71
11682;BME280;5897;42.640;23.310;2023-05-31T06:58:43;94103.69;;;20.15;89.84
11682;BME280;5897;42.640;23.310;2023-05-31T07:01:10;94120.22;;;20.46;89.04
11682;BME280;5897;42.640;23.310;2023-05-31T07:03:38;94116.84;;;20.57;89.49
11682;BME280;5897;42.640;23.310;2023-05-31T07:06:04;94110.22;;;20.69;88.53
11682;BME280;5897;42.640;23.310;2023-05-31T07:08:31;94114.56;;;20.81;88.76
11682;BME280;5897;42.640;23.310;2023-05-31T07:11:00;94116.41;;;20.89;87.00
11682;BME280;5897;42.640;23.310;2023-05-31T07:13:27;94111.22;;;20.97;86.49
11682;BME280;5897;42.640;23.310;2023-05-31T07:15:53;94116.03;;;21.07;86.23
11682;BME280;5897;42.640;23.310;2023-05-31T07:18:20;94120.81;;;21.12;85.81
11682;BME280;5897;42.640;23.310;2023-05-31T07:20:47;94113.75;;;21.06;85.08
11682;BME280;5897;42.640;23.310;2023-05-31T07:23:14;94117.50;;;21.03;85.44
11682;BME280;5897;42.640;23.310;2023-05-31T07:25:40;94119.09;;;21.20;84.69
11682;BME280;5897;42.640;23.310;2023-05-31T07:28:09;94121.69;;;21.35;83.95
11682;BME280;5897;42.640;23.310;2023-05-31T07:30:35;94117.28;;;21.43;83.82
11682;BME280;5897;42.640;23.310;2023-05-31T07:33:02;94120.09;;;21.54;82.84
11682;BME280;5897;42.640;23.310;2023-05-31T07:35:29;94121.81;;;21.51;81.92
11682;BME280;5897;42.640;23.310;2023-05-31T07:37:56;94106.59;;;21.56;81.74
11682;BME280;5897;42.640;23.310;2023-05-31T07:40:23;94115.19;;;21.69;81.18
11682;BME280;5897;42.640;23.310;2023-05-31T07:42:50;94113.72;;;21.79;80.77
11682;BME280;5897;42.640;23.310;2023-05-31T07:45:18;94102.72;;;21.79;78.99
11682;BME280;5897;42.640;23.310;2023-05-31T07:47:45;94118.50;;;21.84;80.26
11682;BME280;5897;42.640;23.310;2023-05-31T07:50:11;94116.00;;;21.86;79.94
11682;BME280;5897;42.640;23.310;2023-05-31T07:52:38;94111.06;;;22.01;80.73
11682;BME280;5897;42.640;23.310;2023-05-31T07:55:06;94109.28;;;21.92;79.32
11682;BME280;5897;42.640;23.310;2023-05-31T07:57:33;94111.88;;;22.18;77.99
11682;BME280;5897;42.640;23.310;2023-05-31T08:00:00;94108.16;;;22.32;76.32
11682;BME280;5897;42.640;23.310;2023-05-31T08:02:29;94109.69;;;22.38;76.59
11682;BME280;5897;42.640;23.310;2023-05-31T08:04:56;94109.91;;;22.24;76.83
11682;BME280;5897;42.640;23.310;2023-05-31T08:07:27;94102.72;;;22.48;75.21
11682;BME280;5897;42.640;23.310;2023-05-31T08:09:53;94099.25;;;22.64;75.09
11682;BME280;5897;42.640;23.310;2023-05-31T08:12:20;94096.50;;;22.81;74.44
11682;BME280;5897;42.640;23.310;2023-05-31T08:14:47;94093.22;;;22.88;72.62
11682;BME280;5897;42.640;23.310;2023-05-31T08:17:14;94102.50;;;22.96;72.63
11682;BME280;5897;42.640;23.310;2023-05-31T08:19:42;94102.66;;;22.43;73.04
11682;BME280;5897;42.640;23.310;2023-05-31T08:22:09;94106.50;;;22.62;72.46
11682;BME280;5897;42.640;23.310;2023-05-31T08:24:35;94102.00;;;22.81;71.64
11682;BME280;5897;42.640;23.310;2023-05-31T08:27:03;94093.97;;;22.83;71.97
11682;BME280;5897;42.640;23.310;2023-05-31T08:29:30;94097.00;;;22.96;72.37
11682;BME280;5897;42.640;23.310;2023-05-31T08:31:57;94105.00;;;23.05;69.80
11682;BME280;5897;42.640;23.310;2023-05-31T08:34:24;94099.00;;;23.01;69.39
11682;BME280;5897;42.640;23.310;2023-05-31T08:36:52;94078.69;;;22.82;69.89
11682;BME280;5897;42.640;23.310;2023-05-31T08:39:20;94094.47;;;22.65;71.51
11682;BME280;5897;42.640;23.310;2023-05-31T08:41:52;94095.22;;;22.65;71.53
11682;BME280;5897;42.640;23.310;2023-05-31T08:44:20;94087.22;;;22.78;71.14
11682;BME280;5897;42.640;23.310;2023-05-31T08:46:47;94091.50;;;22.96;71.67
11682;BME280;5897;42.640;23.310;2023-05-31T08:49:15;94086.72;;;23.02;73.01
11682;BME280;5897;42.640;23.310;2023-05-31T08:51:44;94085.47;;;23.25;72.88
11682;BME280;5897;42.640;23.310;2023-05-31T08:54:13;94085.94;;;23.40;70.60
11682;BME280;5897;42.640;23.310;2023-05-31T08:56:40;94079.69;;;23.28;67.50
11682;BME280;5897;42.640;23.310;2023-05-31T08:59:10;94075.31;;;23.71;69.75
11682;BME280;5897;42.640;23.310;2023-05-31T09:01:38;94074.28;;;23.80;70.23
11682;BME280;5897;42.640;23.310;2023-05-31T09:04:05;94066.25;;;23.93;64.91
11682;BME280;5897;42.640;23.310;2023-05-31T09:06:32;94068.38;;;24.16;66.65
11682;BME280;5897;42.640;23.310;2023-05-31T09:08:59;94066.53;;;24.30;64.73
11682;BME280;5897;42.640;23.310;2023-05-31T09:11:28;94060.41;;;24.48;62.56
11682;BME280;5897;42.640;23.310;2023-05-31T09:13:55;94061.13;;;24.59;63.09
11682;BME280;5897;42.640;23.310;2023-05-31T09:16:23;94055.72;;;24.78;59.57
11682;BME280;5897;42.640;23.310;2023-05-31T09:18:59;94057.69;;;24.83;61.39
11682;BME280;5897;42.640;23.310;2023-05-31T09:21:26;94053.09;;;24.50;63.40
11682;BME280;5897;42.640;23.310;2023-05-31T09:23:54;94053.25;;;24.69;65.12
11682;BME280;5897;42.640;23.310;2023-05-31T09:26:21;94050.19;;;24.78;64.98
11682;BME280;5897;42.640;23.310;2023-05-31T09:28:50;94041.28;;;24.61;65.52
11682;BME280;5897;42.640;23.310;2023-05-31T09:31:18;94044.63;;;24.43;65.76
11682;BME280;5897;42.640;23.310;2023-05-31T09:33:46;94046.88;;;24.44;64.88
11682;BME280;5897;42.640;23.310;2023-05-31T09:36:14;94054.41;;;24.44;63.23
11682;BME280;5897;42.640;23.310;2023-05-31T09:38:49;94049.84;;;24.87;63.33
11682;BME280;5897;42.640;23.310;2023-05-31T09:41:19;94047.84;;;24.87;64.59
11682;BME280;5897;42.640;23.310;2023-05-31T09:43:47;94045.44;;;24.73;64.53
11682;BME280;5897;42.640;23.310;2023-05-31T09:46:16;94033.22;;;24.63;62.13
11682;BME280;5897;42.640;23.310;2023-05-31T09:48:44;94032.66;;;24.70;62.82
11682;BME280;5897;42.640;23.310;2023-05-31T09:51:11;94028.00;;;24.83;64.05
11682;BME280;5897;42.640;23.310;2023-05-31T09:53:43;94029.38;;;24.71;62.22
11682;BME280;5897;42.640;23.310;2023-05-31T09:56:10;94025.28;;;24.02;64.16
11682;BME280;5897;42.640;23.310;2023-05-31T09:58:37;94031.34;;;24.41;63.35
11682;BME280;5897;42.640;23.310;2023-05-31T10:01:06;94031.84;;;24.75;61.18
11682;BME280;5897;42.640;23.310;2023-05-31T10:03:34;94026.25;;;25.10;60.80
11682;BME280;5897;42.640;23.310;2023-05-31T10:06:02;94021.72;;;25.12;58.19
11682;BME280;5897;42.640;23.310;2023-05-31T10:08:29;94028.88;;;24.73;59.77
11682;BME280;5897;42.640;23.310;2023-05-31T10:10:59;94031.63;;;24.38;62.56
11682;BME280;5897;42.640;23.310;2023-05-31T10:13:27;94026.63;;;24.31;63.41
11682;BME280;5897;42.640;23.310;2023-05-31T10:15:55;94026.47;;;24.18;64.57
11682;BME280;5897;42.640;23.310;2023-05-31T10:18:28;94027.91;;;23.78;62.79
11682;BME280;5897;42.640;23.310;2023-05-31T10:21:04;94034.00;;;23.60;65.19
11682;BME280;5897;42.640;23.310;2023-05-31T10:23:36;94034.25;;;23.57;65.17
11682;BME280;5897;42.640;23.310;2023-05-31T10:26:09;94035.00;;;23.57;65.33
11682;BME280;5897;42.640;23.310;2023-05-31T10:28:55;94022.91;;;23.71;65.93
11682;BME280;5897;42.640;23.310;2023-05-31T10:31:26;94017.59;;;23.90;66.14
11682;BME280;5897;42.640;23.310;2023-05-31T10:34:05;94021.03;;;24.42;66.83
11682;BME280;5897;42.640;23.310;2023-05-31T10:36:38;94014.75;;;24.76;65.80
11682;BME280;5897;42.640;23.310;2023-05-31T10:39:08;94015.56;;;25.49;62.09
11682;BME280;5897;42.640;23.310;2023-05-31T10:41:43;94013.69;;;25.81;59.69
11682;BME280;5897;42.640;23.310;2023-05-31T10:44:17;94011.78;;;26.13;56.90
11682;BME280;5897;42.640;23.310;2023-05-31T10:46:49;94009.91;;;26.21;54.80
11682;BME280;5897;42.640;23.310;2023-05-31T10:49:22;94003.66;;;26.52;54.66
11682;BME280;5897;42.640;23.310;2023-05-31T10:51:51;93998.44;;;26.80;53.40
11682;BME280;5897;42.640;23.310;2023-05-31T10:54:19;93991.28;;;27.16;51.97
11682;BME280;5897;42.640;23.310;2023-05-31T10:56:52;93996.75;;;27.34;50.94
11682;BME280;5897;42.640;23.310;2023-05-31T10:59:20;93994.50;;;27.33;51.82
11682;BME280;5897;42.640;23.310;2023-05-31T11:01:46;93994.59;;;27.27;49.30
11682;BME280;5897;42.640;23.310;2023-05-31T11:04:21;93994.38;;;26.81;47.98
11682;BME280;5897;42.640;23.310;2023-05-31T11:06:53;93988.09;;;26.49;50.75
11682;BME280;5897;42.640;23.310;2023-05-31T11:09:21;93986.03;;;26.18;52.45
11682;BME280;5897;42.640;23.310;2023-05-31T11:11:49;93988.72;;;26.23;52.19
11682;BME280;5897;42.640;23.310;2023-05-31T11:14:29;93973.41;;;26.22;51.24
11682;BME280;5897;42.640;23.310;2023-05-31T11:17:13;93983.19;;;26.73;49.89
11682;BME280;5897;42.640;23.310;2023-05-31T11:19:41;93978.94;;;27.17;49.74
11682;BME280;5897;42.640;23.310;2023-05-31T11:22:13;93975.28;;;27.48;51.59
11682;BME280;5897;42.640;23.310;2023-05-31T11:24:48;93978.69;;;27.93;50.42
11682;BME280;5897;42.640;23.310;2023-05-31T11:27:17;93979.38;;;28.19;49.59
11682;BME280;5897;42.640;23.310;2023-05-31T11:29:56;93970.25;;;28.32;49.65
11682;BME280;5897;42.640;23.310;2023-05-31T11:32:56;93969.94;;;27.76;48.71
11682;BME280;5897;42.640;23.310;2023-05-31T11:35:23;93965.91;;;27.25;49.18
11682;BME280;5897;42.640;23.310;2023-05-31T11:38:02;93954.72;;;26.86;50.58
11682;BME280;5897;42.640;23.310;2023-05-31T11:40:29;93948.66;;;26.43;51.71
11682;BME280;5897;42.640;23.310;2023-05-31T11:43:06;93957.16;;;26.13;53.79
11682;BME280;5897;42.640;23.310;2023-05-31T11:45:33;93962.69;;;25.95;53.97
11682;BME280;5897;42.640;23.310;2023-05-31T11:48:08;93964.53;;;25.68;55.04
11682;BME280;5897;42.640;23.310;2023-05-31T11:50:41;93964.31;;;25.66;54.26
11682;BME280;5897;42.640;23.310;2023-05-31T11:53:10;93952.13;;;25.56;55.63
11682;BME280;5897;42.640;23.310;2023-05-31T11:55:37;93956.59;;;25.41;55.73
11682;BME280;5897;42.640;23.310;2023-05-31T11:58:05;93965.31;;;25.21;55.17
11682;BME280;5897;42.640;23.310;2023-05-31T12:00:32;93966.03;;;25.03;54.29
11682;BME280;5897;42.640;23.310;2023-05-31T12:03:00;93964.47;;;24.83;55.91
11682;BME280;5897;42.640;23.310;2023-05-31T12:05:30;93967.91;;;24.30;58.24
11682;BME280;5897;42.640;23.310;2023-05-31T12:07:57;93971.94;;;24.24;59.79
11682;BME280;5897;42.640;23.310;2023-05-31T12:10:30;93968.97;;;24.22;60.78
11682;BME280;5897;42.640;23.310;2023-05-31T12:12:58;93981.13;;;24.02;62.22
11682;BME280;5897;42.640;23.310;2023-05-31T12:15:29;93967.34;;;24.02;62.96
11682;BME280;5897;42.640;23.310;2023-05-31T12:17:57;93978.56;;;23.64;61.53
11682;BME280;5897;42.640;23.310;2023-05-31T12:20:27;93974.44;;;23.30;61.54
11682;BME280;5897;42.640;23.310;2023-05-31T12:23:10;93972.16;;;23.34;61.92
11682;BME280;5897;42.640;23.310;2023-05-31T12:25:43;93972.13;;;23.45;62.60
11682;BME280;5897;42.640;23.310;2023-05-31T12:28:10;93965.06;;;23.55;61.67
11682;BME280;5897;42.640;23.310;2023-05-31T12:30:42;93963.56;;;23.54;61.84
11682;BME280;5897;42.640;23.310;2023-05-31T12:33:09;93958.78;;;23.60;61.92
11682;BME280;5897;42.640;23.310;2023-05-31T12:35:39;93961.75;;;23.62;61.89
11682;BME280;5897;42.640;23.310;2023-05-31T12:38:06;93959.06;;;23.51;61.91
11682;BME280;5897;42.640;23.310;2023-05-31T12:40:38;93959.09;;;23.45;63.04
11682;BME280;5897;42.640;23.310;2023-05-31T12:43:05;93960.22;;;23.04;67.72
11682;BME280;5897;42.640;23.310;2023-05-31T12:45:32;93961.72;;;22.99;73.19
11682;BME280;5897;42.640;23.310;2023-05-31T12:48:04;93969.78;;;22.75;72.00
11682;BME280;5897;42.640;23.310;2023-05-31T12:50:31;93961.53;;;22.48;79.03
11682;BME280;5897;42.640;23.310;2023-05-31T12:52:57;93970.03;;;22.33;86.30
11682;BME280;5897;42.640;23.310;2023-05-31T12:55:26;93962.53;;;22.12;79.36
11682;BME280;5897;42.640;23.310;2023-05-31T12:57:54;93965.47;;;21.75;80.37
11682;BME280;5897;42.640;23.310;2023-05-31T13:00:21;93973.97;;;21.13;88.01
11682;BME280;5897;42.640;23.310;2023-05-31T13:02:48;93973.88;;;20.60;90.09